sensor_id;sensor_type;location;lat;lon;timestamp;P1;durP1;ratioP1;P2;durP2;ratioP2
67248;SDS011;63247;54.300;18.592;2023-04-06T00:00:31;31.38;;;7.57;;
67248;SDS011;63247;54.300;18.592;2023-04-06T00:02:56;22.47;;;6.20;;
67248;SDS011;63247;54.300;18.592;2023-04-06T00:05:22;20.47;;;5.80;;
67248;SDS011;63247;54.300;18.592;2023-04-06T00:07:48;30.10;;;8.40;;
67248;SDS011;63247;54.300;18.592;2023-04-06T00:10:13;39.35;;;9.60;;
67248;SDS011;63247;54.300;18.592;2023-04-06T00:12:39;22.77;;;6.93;;
67248;SDS011;63247;54.300;18.592;2023-04-06T00:15:04;33.47;;;8.60;;
67248;SDS011;63247;54.300;18.592;2023-04-06T00:17:31;29.80;;;7.13;;
67248;SDS011;63247;54.300;18.592;2023-04-06T00:19:56;27.33;;;7.37;;
67248;SDS011;63247;54.300;18.592;2023-04-06T00:22:21;26.20;;;7.40;;
67248;SDS011;63247;54.300;18.592;2023-04-06T00:24:47;23.20;;;6.80;;
67248;SDS011;63247;54.300;18.592;2023-04-06T00:27:12;19.27;;;6.10;;
67248;SDS011;63247;54.300;18.592;2023-04-06T00:29:38;17.33;;;5.93;;
67248;SDS011;63247;54.300;18.592;2023-04-06T00:32:04;17.07;;;5.37;;
67248;SDS011;63247;54.300;18.592;2023-04-06T00:34:30;17.70;;;5.65;;
67248;SDS011;63247;54.300;18.592;2023-04-06T00:36:56;28.43;;;6.73;;
67248;SDS011;63247;54.300;18.592;2023-04-06T00:39:21;17.00;;;5.88;;
67248;SDS011;63247;54.300;18.592;2023-04-06T00:41:48;18.63;;;5.90;;
67248;SDS011;63247;54.300;18.592;2023-04-06T00:44:15;21.27;;;5.93;;
67248;SDS011;63247;54.300;18.592;2023-04-06T00:46:41;15.20;;;5.20;;
67248;SDS011;63247;54.300;18.592;2023-04-06T00:49:06;18.17;;;5.70;;
67248;SDS011;63247;54.300;18.592;2023-04-06T00:51:32;19.67;;;5.03;;
67248;SDS011;63247;54.300;18.592;2023-04-06T00:53:57;14.70;;;4.70;;
67248;SDS011;63247;54.300;18.592;2023-04-06T00:56:23;17.52;;;4.90;;
67248;SDS011;63247;54.300;18.592;2023-04-06T00:58:48;13.57;;;4.37;;
67248;SDS011;63247;54.300;18.592;2023-04-06T01:01:14;18.88;;;4.90;;
67248;SDS011;63247;54.300;18.592;2023-04-06T01:03:40;15.23;;;5.00;;
67248;SDS011;63247;54.300;18.592;2023-04-06T01:06:07;13.60;;;4.28;;
67248;SDS011;63247;54.300;18.592;2023-04-06T01:08:32;16.90;;;4.97;;
67248;SDS011;63247;54.300;18.592;2023-04-06T01:10:59;39.47;;;12.10;;
67248;SDS011;63247;54.300;18.592;2023-04-06T01:13:25;21.80;;;7.43;;
67248;SDS011;63247;54.300;18.592;2023-04-06T01:15:52;15.30;;;6.25;;
67248;SDS011;63247;54.300;18.592;2023-04-06T01:18:17;19.13;;;6.13;;
67248;SDS011;63247;54.300;18.592;2023-04-06T01:20:43;17.25;;;5.72;;
67248;SDS011;63247;54.300;18.592;2023-04-06T01:23:08;16.27;;;4.80;;
67248;SDS011;63247;54.300;18.592;2023-04-06T01:25:34;28.20;;;9.57;;
67248;SDS011;63247;54.300;18.592;2023-04-06T01:27:59;13.68;;;4.38;;
67248;SDS011;63247;54.300;18.592;2023-04-06T01:30:25;15.97;;;4.20;;
67248;SDS011;63247;54.300;18.592;2023-04-06T01:32:51;13.70;;;3.78;;
67248;SDS011;63247;54.300;18.592;2023-04-06T01:35:17;12.73;;;4.37;;
67248;SDS011;63247;54.300;18.592;2023-04-06T01:37:43;10.07;;;3.92;;
67248;SDS011;63247;54.300;18.592;2023-04-06T01:40:09;16.97;;;5.13;;
67248;SDS011;63247;54.300;18.592;2023-04-06T01:42:36;55.03;;;14.90;;
67248;SDS011;63247;54.300;18.592;2023-04-06T01:45:02;51.60;;;15.18;;
67248;SDS011;63247;54.300;18.592;2023-04-06T01:47:27;32.17;;;10.87;;
67248;SDS011;63247;54.300;18.592;2023-04-06T01:49:53;19.87;;;7.30;;
67248;SDS011;63247;54.300;18.592;2023-04-06T01:52:18;22.95;;;7.25;;
67248;SDS011;63247;54.300;18.592;2023-04-06T01:54:43;12.82;;;4.78;;
67248;SDS011;63247;54.300;18.592;2023-04-06T01:57:10;12.60;;;4.47;;
67248;SDS011;63247;54.300;18.592;2023-04-06T01:59:35;12.40;;;4.10;;
67248;SDS011;63247;54.300;18.592;2023-04-06T02:02:01;12.20;;;4.10;;
67248;SDS011;63247;54.300;18.592;2023-04-06T02:04:26;9.40;;;3.30;;
67248;SDS011;63247;54.300;18.592;2023-04-06T02:06:51;9.37;;;3.27;;
67248;SDS011;63247;54.300;18.592;2023-04-06T02:09:17;10.83;;;3.63;;
67248;SDS011;63247;54.300;18.592;2023-04-06T02:11:42;11.70;;;3.20;;
67248;SDS011;63247;54.300;18.592;2023-04-06T02:14:08;8.25;;;3.20;;
67248;SDS011;63247;54.300;18.592;2023-04-06T02:16:33;8.93;;;3.23;;
67248;SDS011;63247;54.300;18.592;2023-04-06T02:18:58;8.80;;;3.00;;
67248;SDS011;63247;54.300;18.592;2023-04-06T02:21:24;12.67;;;3.40;;
67248;SDS011;63247;54.300;18.592;2023-04-06T02:23:49;10.43;;;3.63;;
67248;SDS011;63247;54.300;18.592;2023-04-06T02:26:15;10.50;;;4.40;;
67248;SDS011;63247;54.300;18.592;2023-04-06T02:28:41;19.08;;;6.15;;
67248;SDS011;63247;54.300;18.592;2023-04-06T02:31:06;12.73;;;4.50;;
67248;SDS011;63247;54.300;18.592;2023-04-06T02:33:32;15.77;;;5.30;;
67248;SDS011;63247;54.300;18.592;2023-04-06T02:35:57;18.57;;;5.60;;
67248;SDS011;63247;54.300;18.592;2023-04-06T02:38:23;18.63;;;5.93;;
67248;SDS011;63247;54.300;18.592;2023-04-06T02:40:48;14.53;;;5.60;;
67248;SDS011;63247;54.300;18.592;2023-04-06T02:43:13;18.55;;;5.80;;
67248;SDS011;63247;54.300;18.592;2023-04-06T02:45:40;18.87;;;6.73;;
67248;SDS011;63247;54.300;18.592;2023-04-06T02:48:05;20.23;;;6.45;;
67248;SDS011;63247;54.300;18.592;2023-04-06T02:50:31;18.73;;;6.25;;
67248;SDS011;63247;54.300;18.592;2023-04-06T02:52:56;18.67;;;5.87;;
67248;SDS011;63247;54.300;18.592;2023-04-06T02:55:21;20.87;;;5.90;;
67248;SDS011;63247;54.300;18.592;2023-04-06T02:57:47;22.57;;;6.30;;
67248;SDS011;63247;54.300;18.592;2023-04-06T03:00:12;15.67;;;5.37;;
67248;SDS011;63247;54.300;18.592;2023-04-06T03:02:38;16.57;;;5.90;;
67248;SDS011;63247;54.300;18.592;2023-04-06T03:05:03;18.70;;;5.18;;
67248;SDS011;63247;54.300;18.592;2023-04-06T03:07:29;14.27;;;5.23;;
67248;SDS011;63247;54.300;18.592;2023-04-06T03:09:55;14.27;;;4.80;;
67248;SDS011;63247;54.300;18.592;2023-04-06T03:12:20;15.33;;;4.80;;
67248;SDS011;63247;54.300;18.592;2023-04-06T03:14:45;17.70;;;4.87;;
67248;SDS011;63247;54.300;18.592;2023-04-06T03:17:11;14.47;;;4.53;;
67248;SDS011;63247;54.300;18.592;2023-04-06T03:19:36;12.83;;;4.63;;
67248;SDS011;63247;54.300;18.592;2023-04-06T03:22:02;15.82;;;5.30;;
67248;SDS011;63247;54.300;18.592;2023-04-06T03:24:27;15.82;;;5.22;;
67248;SDS011;63247;54.300;18.592;2023-04-06T03:26:53;15.03;;;5.10;;
67248;SDS011;63247;54.300;18.592;2023-04-06T03:29:18;18.27;;;5.23;;
67248;SDS011;63247;54.300;18.592;2023-04-06T03:31:43;18.00;;;5.13;;
67248;SDS011;63247;54.300;18.592;2023-04-06T03:34:09;19.50;;;6.50;;
67248;SDS011;63247;54.300;18.592;2023-04-06T03:36:35;20.00;;;5.77;;
67248;SDS011;63247;54.300;18.592;2023-04-06T03:39:00;16.98;;;5.70;;
67248;SDS011;63247;54.300;18.592;2023-04-06T03:41:26;17.93;;;6.20;;
67248;SDS011;63247;54.300;18.592;2023-04-06T03:43:52;18.47;;;5.97;;
67248;SDS011;63247;54.300;18.592;2023-04-06T03:46:17;20.27;;;5.85;;
67248;SDS011;63247;54.300;18.592;2023-04-06T03:48:43;16.53;;;5.17;;
67248;SDS011;63247;54.300;18.592;2023-04-06T03:51:08;17.80;;;5.43;;
67248;SDS011;63247;54.300;18.592;2023-04-06T03:53:34;15.70;;;5.67;;
67248;SDS011;63247;54.300;18.592;2023-04-06T03:55:59;15.27;;;5.33;;
67248;SDS011;63247;54.300;18.592;2023-04-06T03:58:24;16.50;;;5.70;;
67248;SDS011;63247;54.300;18.592;2023-04-06T04:00:50;19.27;;;5.77;;
67248;SDS011;63247;54.300;18.592;2023-04-06T04:03:15;18.70;;;5.47;;
67248;SDS011;63247;54.300;18.592;2023-04-06T04:05:41;16.00;;;5.70;;
67248;SDS011;63247;54.300;18.592;2023-04-06T04:08:06;19.23;;;5.93;;
67248;SDS011;63247;54.300;18.592;2023-04-06T04:10:32;18.00;;;5.40;;
67248;SDS011;63247;54.300;18.592;2023-04-06T04:12:57;15.53;;;5.53;;
67248;SDS011;63247;54.300;18.592;2023-04-06T04:15:23;16.17;;;5.10;;
67248;SDS011;63247;54.300;18.592;2023-04-06T04:17:48;16.60;;;5.23;;
67248;SDS011;63247;54.300;18.592;2023-04-06T04:20:15;17.48;;;5.70;;
67248;SDS011;63247;54.300;18.592;2023-04-06T04:22:41;13.48;;;5.50;;
67248;SDS011;63247;54.300;18.592;2023-04-06T04:25:07;17.03;;;5.47;;
67248;SDS011;63247;54.300;18.592;2023-04-06T04:27:32;22.60;;;6.03;;
67248;SDS011;63247;54.300;18.592;2023-04-06T04:29:58;18.57;;;5.80;;
67248;SDS011;63247;54.300;18.592;2023-04-06T04:32:23;20.87;;;6.10;;
67248;SDS011;63247;54.300;18.592;2023-04-06T04:34:52;18.83;;;6.50;;
67248;SDS011;63247;54.300;18.592;2023-04-06T04:37:20;23.30;;;7.47;;
67248;SDS011;63247;54.300;18.592;2023-04-06T04:39:45;22.20;;;6.33;;
67248;SDS011;63247;54.300;18.592;2023-04-06T04:42:11;22.57;;;6.77;;
67248;SDS011;63247;54.300;18.592;2023-04-06T04:44:36;23.23;;;6.72;;
67248;SDS011;63247;54.300;18.592;2023-04-06T04:47:02;25.27;;;7.03;;
67248;SDS011;63247;54.300;18.592;2023-04-06T04:49:27;18.27;;;6.00;;
67248;SDS011;63247;54.300;18.592;2023-04-06T04:51:53;19.57;;;6.63;;
67248;SDS011;63247;54.300;18.592;2023-04-06T04:54:18;19.87;;;6.90;;
67248;SDS011;63247;54.300;18.592;2023-04-06T04:56:44;17.65;;;6.20;;
67248;SDS011;63247;54.300;18.592;2023-04-06T04:59:10;18.57;;;6.63;;
67248;SDS011;63247;54.300;18.592;2023-04-06T05:01:35;17.13;;;6.03;;
67248;SDS011;63247;54.300;18.592;2023-04-06T05:04:01;20.77;;;6.17;;
67248;SDS011;63247;54.300;18.592;2023-04-06T05:06:26;18.50;;;6.47;;
67248;SDS011;63247;54.300;18.592;2023-04-06T05:08:51;18.17;;;6.80;;
67248;SDS011;63247;54.300;18.592;2023-04-06T05:11:17;20.30;;;7.20;;
67248;SDS011;63247;54.300;18.592;2023-04-06T05:13:42;23.63;;;7.32;;
67248;SDS011;63247;54.300;18.592;2023-04-06T05:16:08;25.75;;;7.15;;
67248;SDS011;63247;54.300;18.592;2023-04-06T05:18:33;19.33;;;7.17;;
67248;SDS011;63247;54.300;18.592;2023-04-06T05:20:59;20.30;;;7.40;;
67248;SDS011;63247;54.300;18.592;2023-04-06T05:23:25;20.75;;;8.00;;
67248;SDS011;63247;54.300;18.592;2023-04-06T05:25:50;27.70;;;10.63;;
67248;SDS011;63247;54.300;18.592;2023-04-06T05:28:16;25.73;;;10.73;;
67248;SDS011;63247;54.300;18.592;2023-04-06T05:30:42;27.52;;;10.70;;
67248;SDS011;63247;54.300;18.592;2023-04-06T05:33:09;29.15;;;9.90;;
67248;SDS011;63247;54.300;18.592;2023-04-06T05:35:35;34.17;;;12.03;;
67248;SDS011;63247;54.300;18.592;2023-04-06T05:38:00;43.47;;;13.88;;
67248;SDS011;63247;54.300;18.592;2023-04-06T05:40:25;34.17;;;11.90;;
67248;SDS011;63247;54.300;18.592;2023-04-06T05:42:51;38.40;;;11.23;;
67248;SDS011;63247;54.300;18.592;2023-04-06T05:45:16;47.10;;;15.23;;
67248;SDS011;63247;54.300;18.592;2023-04-06T05:47:43;60.08;;;21.58;;
67248;SDS011;63247;54.300;18.592;2023-04-06T05:50:14;37.10;;;14.98;;
67248;SDS011;63247;54.300;18.592;2023-04-06T05:52:40;26.70;;;10.80;;
67248;SDS011;63247;54.300;18.592;2023-04-06T05:55:08;20.48;;;8.10;;
67248;SDS011;63247;54.300;18.592;2023-04-06T05:57:34;24.40;;;9.10;;
67248;SDS011;63247;54.300;18.592;2023-04-06T05:59:59;19.13;;;7.60;;
67248;SDS011;63247;54.300;18.592;2023-04-06T06:02:25;26.35;;;10.20;;
67248;SDS011;63247;54.300;18.592;2023-04-06T06:04:51;27.60;;;9.00;;
67248;SDS011;63247;54.300;18.592;2023-04-06T06:07:16;21.43;;;6.90;;
67248;SDS011;63247;54.300;18.592;2023-04-06T06:09:42;13.88;;;4.93;;
67248;SDS011;63247;54.300;18.592;2023-04-06T06:12:07;11.03;;;2.67;;
67248;SDS011;63247;54.300;18.592;2023-04-06T06:14:33;8.37;;;3.30;;
67248;SDS011;63247;54.300;18.592;2023-04-06T06:16:58;9.77;;;3.10;;
67248;SDS011;63247;54.300;18.592;2023-04-06T06:19:23;7.22;;;2.85;;
67248;SDS011;63247;54.300;18.592;2023-04-06T06:21:49;4.67;;;2.17;;
67248;SDS011;63247;54.300;18.592;2023-04-06T06:24:15;4.82;;;2.28;;
67248;SDS011;63247;54.300;18.592;2023-04-06T06:26:40;5.40;;;2.10;;
67248;SDS011;63247;54.300;18.592;2023-04-06T06:29:06;7.43;;;2.90;;
67248;SDS011;63247;54.300;18.592;2023-04-06T06:31:31;7.57;;;3.08;;
67248;SDS011;63247;54.300;18.592;2023-04-06T06:33:57;9.10;;;3.50;;
67248;SDS011;63247;54.300;18.592;2023-04-06T06:36:22;11.80;;;3.00;;
67248;SDS011;63247;54.300;18.592;2023-04-06T06:38:48;11.80;;;3.17;;
67248;SDS011;63247;54.300;18.592;2023-04-06T06:41:13;9.90;;;3.05;;
67248;SDS011;63247;54.300;18.592;2023-04-06T06:43:39;8.83;;;3.20;;
67248;SDS011;63247;54.300;18.592;2023-04-06T06:46:04;14.77;;;3.60;;
67248;SDS011;63247;54.300;18.592;2023-04-06T06:48:31;10.73;;;3.05;;
67248;SDS011;63247;54.300;18.592;2023-04-06T06:50:56;6.70;;;3.10;;
67248;SDS011;63247;54.300;18.592;2023-04-06T06:53:22;8.65;;;2.80;;
67248;SDS011;63247;54.300;18.592;2023-04-06T06:55:48;6.22;;;2.47;;
67248;SDS011;63247;54.300;18.592;2023-04-06T06:58:14;11.23;;;3.10;;
67248;SDS011;63247;54.300;18.592;2023-04-06T07:00:40;8.20;;;3.08;;
67248;SDS011;63247;54.300;18.592;2023-04-06T07:03:05;13.03;;;4.23;;
67248;SDS011;63247;54.300;18.592;2023-04-06T07:05:31;8.25;;;3.05;;
67248;SDS011;63247;54.300;18.592;2023-04-06T07:07:57;7.97;;;3.30;;
67248;SDS011;63247;54.300;18.592;2023-04-06T07:10:22;7.27;;;3.17;;
67248;SDS011;63247;54.300;18.592;2023-04-06T07:12:48;6.17;;;3.20;;
67248;SDS011;63247;54.300;18.592;2023-04-06T07:15:13;8.27;;;3.45;;
67248;SDS011;63247;54.300;18.592;2023-04-06T07:17:39;9.00;;;3.37;;
67248;SDS011;63247;54.300;18.592;2023-04-06T07:20:06;8.75;;;3.10;;
67248;SDS011;63247;54.300;18.592;2023-04-06T07:22:31;9.40;;;3.33;;
67248;SDS011;63247;54.300;18.592;2023-04-06T07:24:57;11.00;;;3.80;;
67248;SDS011;63247;54.300;18.592;2023-04-06T07:27:22;10.63;;;4.10;;
67248;SDS011;63247;54.300;18.592;2023-04-06T07:29:48;10.63;;;4.63;;
67248;SDS011;63247;54.300;18.592;2023-04-06T07:32:13;13.47;;;6.10;;
67248;SDS011;63247;54.300;18.592;2023-04-06T07:34:39;11.85;;;4.95;;
67248;SDS011;63247;54.300;18.592;2023-04-06T07:37:04;13.95;;;4.40;;
67248;SDS011;63247;54.300;18.592;2023-04-06T07:39:30;13.60;;;5.70;;
67248;SDS011;63247;54.300;18.592;2023-04-06T07:41:55;14.35;;;5.68;;
67248;SDS011;63247;54.300;18.592;2023-04-06T07:44:21;24.98;;;6.25;;
67248;SDS011;63247;54.300;18.592;2023-04-06T07:46:46;18.93;;;7.20;;
67248;SDS011;63247;54.300;18.592;2023-04-06T07:49:11;27.23;;;8.03;;
67248;SDS011;63247;54.300;18.592;2023-04-06T07:51:37;15.00;;;6.60;;
67248;SDS011;63247;54.300;18.592;2023-04-06T07:54:03;20.75;;;8.02;;
67248;SDS011;63247;54.300;18.592;2023-04-06T07:56:29;15.80;;;7.05;;
67248;SDS011;63247;54.300;18.592;2023-04-06T07:58:54;20.33;;;6.43;;
67248;SDS011;63247;54.300;18.592;2023-04-06T08:01:22;24.20;;;7.38;;
67248;SDS011;63247;54.300;18.592;2023-04-06T08:03:47;17.13;;;6.40;;
67248;SDS011;63247;54.300;18.592;2023-04-06T08:06:14;20.88;;;7.15;;
67248;SDS011;63247;54.300;18.592;2023-04-06T08:08:39;19.83;;;7.30;;
67248;SDS011;63247;54.300;18.592;2023-04-06T08:11:05;13.90;;;5.75;;
67248;SDS011;63247;54.300;18.592;2023-04-06T08:13:30;16.30;;;7.00;;
67248;SDS011;63247;54.300;18.592;2023-04-06T08:15:56;20.33;;;8.50;;
67248;SDS011;63247;54.300;18.592;2023-04-06T08:18:21;19.35;;;7.13;;
67248;SDS011;63247;54.300;18.592;2023-04-06T08:20:47;22.20;;;8.07;;
67248;SDS011;63247;54.300;18.592;2023-04-06T08:23:14;25.15;;;7.25;;
67248;SDS011;63247;54.300;18.592;2023-04-06T08:25:40;15.43;;;6.22;;
67248;SDS011;63247;54.300;18.592;2023-04-06T08:28:07;18.53;;;6.27;;
67248;SDS011;63247;54.300;18.592;2023-04-06T08:30:33;14.88;;;6.18;;
67248;SDS011;63247;54.300;18.592;2023-04-06T08:32:59;14.07;;;4.87;;
67248;SDS011;63247;54.300;18.592;2023-04-06T08:35:25;11.15;;;4.25;;
67248;SDS011;63247;54.300;18.592;2023-04-06T08:37:51;14.17;;;4.70;;
67248;SDS011;63247;54.300;18.592;2023-04-06T08:40:16;13.20;;;4.78;;
67248;SDS011;63247;54.300;18.592;2023-04-06T08:42:44;13.23;;;4.97;;
67248;SDS011;63247;54.300;18.592;2023-04-06T08:45:21;12.00;;;4.63;;
67248;SDS011;63247;54.300;18.592;2023-04-06T08:47:50;10.68;;;4.07;;
67248;SDS011;63247;54.300;18.592;2023-04-06T08:50:17;15.93;;;4.27;;
67248;SDS011;63247;54.300;18.592;2023-04-06T08:52:43;12.10;;;4.18;;
67248;SDS011;63247;54.300;18.592;2023-04-06T08:55:12;13.90;;;4.60;;
67248;SDS011;63247;54.300;18.592;2023-04-06T08:57:37;9.97;;;3.50;;
67248;SDS011;63247;54.300;18.592;2023-04-06T09:00:04;12.05;;;3.72;;
67248;SDS011;63247;54.300;18.592;2023-04-06T09:02:31;12.98;;;3.30;;
67248;SDS011;63247;54.300;18.592;2023-04-06T09:04:56;12.60;;;4.10;;
67248;SDS011;63247;54.300;18.592;2023-04-06T09:07:22;9.15;;;3.55;;
67248;SDS011;63247;54.300;18.592;2023-04-06T09:09:48;11.83;;;3.47;;
67248;SDS011;63247;54.300;18.592;2023-04-06T09:12:24;11.20;;;3.35;;
67248;SDS011;63247;54.300;18.592;2023-04-06T09:14:49;9.95;;;3.42;;
67248;SDS011;63247;54.300;18.592;2023-04-06T09:17:22;8.87;;;3.67;;
67248;SDS011;63247;54.300;18.592;2023-04-06T09:19:48;10.60;;;3.40;;
67248;SDS011;63247;54.300;18.592;2023-04-06T09:22:14;9.83;;;3.43;;
67248;SDS011;63247;54.300;18.592;2023-04-06T09:24:41;10.98;;;3.85;;
67248;SDS011;63247;54.300;18.592;2023-04-06T09:27:11;8.32;;;3.80;;
67248;SDS011;63247;54.300;18.592;2023-04-06T09:29:37;9.90;;;3.60;;
67248;SDS011;63247;54.300;18.592;2023-04-06T09:32:03;7.82;;;3.22;;
67248;SDS011;63247;54.300;18.592;2023-04-06T09:34:29;9.17;;;3.50;;
67248;SDS011;63247;54.300;18.592;2023-04-06T09:36:55;6.75;;;3.20;;
67248;SDS011;63247;54.300;18.592;2023-04-06T09:39:21;22.53;;;5.70;;
67248;SDS011;63247;54.300;18.592;2023-04-06T09:41:49;9.10;;;3.30;;
67248;SDS011;63247;54.300;18.592;2023-04-06T09:44:15;14.18;;;4.07;;
67248;SDS011;63247;54.300;18.592;2023-04-06T09:46:42;23.40;;;6.40;;
67248;SDS011;63247;54.300;18.592;2023-04-06T09:49:09;12.13;;;3.80;;
67248;SDS011;63247;54.300;18.592;2023-04-06T09:51:36;6.95;;;2.83;;
67248;SDS011;63247;54.300;18.592;2023-04-06T09:54:04;9.53;;;3.40;;
67248;SDS011;63247;54.300;18.592;2023-04-06T09:56:33;8.25;;;2.95;;
67248;SDS011;63247;54.300;18.592;2023-04-06T09:59:06;9.85;;;3.78;;
67248;SDS011;63247;54.300;18.592;2023-04-06T10:01:36;7.15;;;2.28;;
67248;SDS011;63247;54.300;18.592;2023-04-06T10:06:31;9.80;;;3.50;;
67248;SDS011;63247;54.300;18.592;2023-04-06T10:08:59;7.75;;;2.75;;
67248;SDS011;63247;54.300;18.592;2023-04-06T10:11:27;8.70;;;2.95;;
67248;SDS011;63247;54.300;18.592;2023-04-06T10:13:53;9.20;;;2.93;;
67248;SDS011;63247;54.300;18.592;2023-04-06T10:16:20;7.85;;;2.72;;
67248;SDS011;63247;54.300;18.592;2023-04-06T10:18:49;7.80;;;2.80;;
67248;SDS011;63247;54.300;18.592;2023-04-06T10:21:20;8.00;;;3.05;;
67248;SDS011;63247;54.300;18.592;2023-04-06T10:23:52;7.45;;;2.67;;
67248;SDS011;63247;54.300;18.592;2023-04-06T10:26:23;6.83;;;2.80;;
67248;SDS011;63247;54.300;18.592;2023-04-06T10:28:50;7.90;;;2.83;;
67248;SDS011;63247;54.300;18.592;2023-04-06T10:31:23;6.63;;;2.50;;
67248;SDS011;63247;54.300;18.592;2023-04-06T10:33:54;7.20;;;2.00;;
67248;SDS011;63247;54.300;18.592;2023-04-06T10:36:25;7.47;;;2.70;;
67248;SDS011;63247;54.300;18.592;2023-04-06T10:39:01;7.30;;;2.00;;
67248;SDS011;63247;54.300;18.592;2023-04-06T10:41:52;6.78;;;1.75;;
67248;SDS011;63247;54.300;18.592;2023-04-06T10:44:17;9.13;;;2.80;;
67248;SDS011;63247;54.300;18.592;2023-04-06T10:46:52;6.43;;;2.20;;
67248;SDS011;63247;54.300;18.592;2023-04-06T10:49:19;8.20;;;2.80;;
67248;SDS011;63247;54.300;18.592;2023-04-06T10:51:45;9.23;;;3.13;;
67248;SDS011;63247;54.300;18.592;2023-04-06T10:54:17;7.75;;;2.55;;
67248;SDS011;63247;54.300;18.592;2023-04-06T10:56:43;17.75;;;5.50;;
67248;SDS011;63247;54.300;18.592;2023-04-06T10:59:09;6.60;;;1.90;;
67248;SDS011;63247;54.300;18.592;2023-04-06T11:01:34;8.43;;;2.27;;
67248;SDS011;63247;54.300;18.592;2023-04-06T11:04:00;6.53;;;2.27;;
67248;SDS011;63247;54.300;18.592;2023-04-06T11:06:26;7.27;;;2.83;;
67248;SDS011;63247;54.300;18.592;2023-04-06T11:08:57;5.82;;;2.35;;
67248;SDS011;63247;54.300;18.592;2023-04-06T11:11:24;5.43;;;1.58;;
67248;SDS011;63247;54.300;18.592;2023-04-06T11:13:55;6.43;;;2.42;;
67248;SDS011;63247;54.300;18.592;2023-04-06T11:16:22;10.83;;;2.63;;
67248;SDS011;63247;54.300;18.592;2023-04-06T11:19:23;5.82;;;2.33;;
67248;SDS011;63247;54.300;18.592;2023-04-06T11:21:42;5.90;;;2.15;;
67248;SDS011;63247;54.300;18.592;2023-04-06T11:26:48;5.50;;;1.90;;
67248;SDS011;63247;54.300;18.592;2023-04-06T11:29:17;4.00;;;1.00;;
67248;SDS011;63247;54.300;18.592;2023-04-06T11:31:47;5.00;;;1.92;;
67248;SDS011;63247;54.300;18.592;2023-04-06T11:34:16;5.28;;;1.60;;
67248;SDS011;63247;54.300;18.592;2023-04-06T11:36:44;5.80;;;1.50;;
67248;SDS011;63247;54.300;18.592;2023-04-06T11:39:11;6.10;;;1.48;;
67248;SDS011;63247;54.300;18.592;2023-04-06T11:41:37;4.53;;;1.77;;
67248;SDS011;63247;54.300;18.592;2023-04-06T11:44:03;5.47;;;1.45;;
67248;SDS011;63247;54.300;18.592;2023-04-06T11:46:28;6.63;;;2.17;;
67248;SDS011;63247;54.300;18.592;2023-04-06T11:48:57;4.88;;;1.50;;
67248;SDS011;63247;54.300;18.592;2023-04-06T11:51:24;5.00;;;1.60;;
67248;SDS011;63247;54.300;18.592;2023-04-06T11:53:51;5.38;;;1.80;;
67248;SDS011;63247;54.300;18.592;2023-04-06T11:56:29;6.75;;;2.13;;
67248;SDS011;63247;54.300;18.592;2023-04-06T11:58:58;7.53;;;2.17;;
67248;SDS011;63247;54.300;18.592;2023-04-06T12:01:25;5.57;;;2.35;;
67248;SDS011;63247;54.300;18.592;2023-04-06T12:03:51;5.93;;;1.90;;
67248;SDS011;63247;54.300;18.592;2023-04-06T12:06:17;5.90;;;1.55;;
67248;SDS011;63247;54.300;18.592;2023-04-06T12:08:43;5.25;;;1.80;;
67248;SDS011;63247;54.300;18.592;2023-04-06T12:11:09;3.10;;;1.00;;
67248;SDS011;63247;54.300;18.592;2023-04-06T12:13:35;7.05;;;1.30;;
67248;SDS011;63247;54.300;18.592;2023-04-06T12:16:00;6.13;;;1.33;;
67248;SDS011;63247;54.300;18.592;2023-04-06T12:18:26;5.97;;;1.47;;
67248;SDS011;63247;54.300;18.592;2023-04-06T12:20:51;5.67;;;1.60;;
67248;SDS011;63247;54.300;18.592;2023-04-06T12:23:18;5.68;;;1.35;;
67248;SDS011;63247;54.300;18.592;2023-04-06T12:25:44;5.07;;;1.38;;
67248;SDS011;63247;54.300;18.592;2023-04-06T12:28:09;3.00;;;1.30;;
67248;SDS011;63247;54.300;18.592;2023-04-06T12:30:35;6.27;;;1.40;;
67248;SDS011;63247;54.300;18.592;2023-04-06T12:33:00;4.73;;;1.37;;
67248;SDS011;63247;54.300;18.592;2023-04-06T12:35:26;4.10;;;1.38;;
67248;SDS011;63247;54.300;18.592;2023-04-06T12:37:52;4.87;;;1.00;;
67248;SDS011;63247;54.300;18.592;2023-04-06T12:40:17;3.83;;;1.20;;
67248;SDS011;63247;54.300;18.592;2023-04-06T12:42:43;3.83;;;0.80;;
67248;SDS011;63247;54.300;18.592;2023-04-06T12:45:08;4.70;;;1.40;;
67248;SDS011;63247;54.300;18.592;2023-04-06T12:47:34;6.80;;;1.30;;
67248;SDS011;63247;54.300;18.592;2023-04-06T12:50:01;4.50;;;1.40;;
67248;SDS011;63247;54.300;18.592;2023-04-06T12:52:27;4.75;;;0.90;;
67248;SDS011;63247;54.300;18.592;2023-04-06T12:54:55;3.73;;;0.83;;
67248;SDS011;63247;54.300;18.592;2023-04-06T12:57:21;4.90;;;1.45;;
67248;SDS011;63247;54.300;18.592;2023-04-06T12:59:46;3.08;;;0.75;;
67248;SDS011;63247;54.300;18.592;2023-04-06T13:02:12;2.23;;;0.63;;
67248;SDS011;63247;54.300;18.592;2023-04-06T13:04:37;3.77;;;0.90;;
67248;SDS011;63247;54.300;18.592;2023-04-06T13:07:03;3.40;;;0.80;;
67248;SDS011;63247;54.300;18.592;2023-04-06T13:09:28;6.03;;;1.00;;
67248;SDS011;63247;54.300;18.592;2023-04-06T13:11:54;6.10;;;1.88;;
67248;SDS011;63247;54.300;18.592;2023-04-06T13:14:19;8.00;;;3.07;;
67248;SDS011;63247;54.300;18.592;2023-04-06T13:16:44;6.97;;;1.17;;
67248;SDS011;63247;54.300;18.592;2023-04-06T13:19:11;3.50;;;1.05;;
67248;SDS011;63247;54.300;18.592;2023-04-06T13:21:36;4.73;;;1.10;;
67248;SDS011;63247;54.300;18.592;2023-04-06T13:24:01;7.67;;;1.40;;
67248;SDS011;63247;54.300;18.592;2023-04-06T13:26:27;3.92;;;1.02;;
67248;SDS011;63247;54.300;18.592;2023-04-06T13:28:53;3.95;;;1.35;;
67248;SDS011;63247;54.300;18.592;2023-04-06T13:31:21;5.07;;;1.10;;
67248;SDS011;63247;54.300;18.592;2023-04-06T13:33:46;5.07;;;1.23;;
67248;SDS011;63247;54.300;18.592;2023-04-06T13:36:11;3.70;;;0.73;;
67248;SDS011;63247;54.300;18.592;2023-04-06T13:38:37;3.28;;;0.93;;
67248;SDS011;63247;54.300;18.592;2023-04-06T13:41:03;6.13;;;1.37;;
67248;SDS011;63247;54.300;18.592;2023-04-06T13:43:29;4.30;;;1.20;;
67248;SDS011;63247;54.300;18.592;2023-04-06T13:45:55;3.60;;;1.17;;
67248;SDS011;63247;54.300;18.592;2023-04-06T13:48:23;9.40;;;2.75;;
67248;SDS011;63247;54.300;18.592;2023-04-06T13:50:48;7.88;;;1.58;;
67248;SDS011;63247;54.300;18.592;2023-04-06T13:53:14;2.53;;;0.80;;
67248;SDS011;63247;54.300;18.592;2023-04-06T13:55:40;3.05;;;0.82;;
67248;SDS011;63247;54.300;18.592;2023-04-06T13:58:05;5.82;;;1.10;;
67248;SDS011;63247;54.300;18.592;2023-04-06T14:00:31;5.07;;;1.07;;
67248;SDS011;63247;54.300;18.592;2023-04-06T14:02:56;5.30;;;1.00;;
67248;SDS011;63247;54.300;18.592;2023-04-06T14:05:22;3.80;;;1.00;;
67248;SDS011;63247;54.300;18.592;2023-04-06T14:07:48;5.30;;;1.10;;
67248;SDS011;63247;54.300;18.592;2023-04-06T14:10:14;2.80;;;0.65;;
67248;SDS011;63247;54.300;18.592;2023-04-06T14:12:41;3.78;;;0.90;;
67248;SDS011;63247;54.300;18.592;2023-04-06T14:15:10;4.63;;;1.00;;
67248;SDS011;63247;54.300;18.592;2023-04-06T14:17:37;5.03;;;1.20;;
67248;SDS011;63247;54.300;18.592;2023-04-06T14:20:03;4.47;;;0.88;;
67248;SDS011;63247;54.300;18.592;2023-04-06T14:22:30;2.42;;;0.80;;
67248;SDS011;63247;54.300;18.592;2023-04-06T14:24:56;4.47;;;1.10;;